Time;durP1;ratioP1;P1;durP2;ratioP2;P2;SDS_P1;SDS_P2;PMS_P1;PMS_P2;Temp;Humidity;BMP_temperature;BMP_pressure;BME280_temperature;BME280_humidity;BME280_pressure;Samples;Min_cycle;Max_cycle;Signal;HPM_P1;HPM_P2
2024/01/16 00:00:03;;;;;;;;;;;2.90;75.70;;;;;;5051532;28;20003;-72
2024/01/16 00:02:29;;;;;;;;;;;2.80;75.60;;;;;;5067574;28;19932;-73
2024/01/16 00:04:55;;;;;;;;;;;2.80;75.90;;;;;;5051875;28;20393;-73
2024/01/16 00:07:21;;;;;;;;;;;2.80;75.70;;;;;;5053010;28;19917;-73
2024/01/16 00:09:47;;;;;;;;;;;2.90;75.00;;;;;;5053414;28;19924;-73
2024/01/16 00:12:12;;;;;;;;;;;2.90;75.40;;;;;;5050671;28;20006;-74
2024/01/16 00:14:38;;;;;;;;;;;2.90;75.40;;;;;;5043980;28;20285;-73
2024/01/16 00:17:05;;;;;;;;;;;2.90;75.30;;;;;;5050910;28;20034;-72
2024/01/16 00:19:31;;;;;;;;;;;2.90;75.20;;;;;;5050574;28;19928;-72
2024/01/16 00:21:57;;;;;;;;;;;2.90;75.30;;;;;;5050094;28;20366;-73
2024/01/16 00:24:23;;;;;;;;;;;2.90;75.30;;;;;;5050742;28;20094;-74
2024/01/16 00:26:49;;;;;;;;;;;2.90;75.30;;;;;;5050694;28;20017;-74
2024/01/16 00:29:16;;;;;;;;;;;2.90;75.30;;;;;;5050895;28;19936;-73
2024/01/16 00:31:42;;;;;;;;;;;2.90;75.20;;;;;;5051325;28;19960;-72
2024/01/16 00:34:08;;;;;;;;;;;2.90;75.20;;;;;;5050736;28;19920;-73
2024/01/16 00:36:34;;;;;;;;;;;2.90;75.30;;;;;;5051729;28;19931;-72
2024/01/16 00:39:00;;;;;;;;;;;2.90;75.40;;;;;;5051972;28;20425;-72
2024/01/16 00:41:26;;;;;;;;;;;2.90;75.30;;;;;;5050681;28;20324;-72
2024/01/16 00:43:52;;;;;;;;;;;2.90;75.30;;;;;;5044346;28;20336;-73
2024/01/16 00:46:18;;;;;;;;;;;2.90;75.30;;;;;;5052175;28;19923;-72
2024/01/16 00:48:44;;;;;;;;;;;2.90;75.40;;;;;;5050330;28;20512;-72
2024/01/16 00:51:10;;;;;;;;;;;2.90;75.30;;;;;;5049613;28;19920;-72
2024/01/16 00:53:40;;;;;;;;;;;2.90;75.30;;;;;;5050269;28;20453;-72
2024/01/16 00:56:06;;;;;;;;;;;2.90;75.10;;;;;;5051464;28;19962;-74
2024/01/16 00:58:32;;;;;;;;;;;2.90;75.20;;;;;;5051372;28;20369;-72
2024/01/16 01:00:58;;;;;;;;;;;2.90;75.10;;;;;;5032995;28;20066;-73
2024/01/16 01:03:24;;;;;;;;;;;3.00;75.00;;;;;;5049907;28;20019;-73
2024/01/16 01:05:50;;;;;;;;;;;3.00;75.00;;;;;;5051655;28;20433;-72
2024/01/16 01:08:16;;;;;;;;;;;3.00;74.20;;;;;;5050537;28;19947;-73
2024/01/16 01:10:42;;;;;;;;;;;3.00;74.80;;;;;;5050113;28;20404;-72
2024/01/16 01:13:08;;;;;;;;;;;3.00;75.00;;;;;;5050722;28;19921;-72
2024/01/16 01:15:34;;;;;;;;;;;3.00;75.00;;;;;;5051823;28;19923;-72
2024/01/16 01:18:00;;;;;;;;;;;3.00;74.90;;;;;;5050462;28;20350;-74
2024/01/16 01:20:26;;;;;;;;;;;3.00;74.30;;;;;;5050721;28;19924;-71
2024/01/16 01:22:52;;;;;;;;;;;3.00;74.80;;;;;;5050519;28;20372;-72
2024/01/16 01:25:18;;;;;;;;;;;2.90;74.90;;;;;;5050574;28;19916;-72
2024/01/16 01:27:44;;;;;;;;;;;2.90;75.00;;;;;;5050586;28;19960;-72
2024/01/16 01:30:10;;;;;;;;;;;3.00;74.90;;;;;;5033186;28;19925;-72
2024/01/16 01:32:37;;;;;;;;;;;3.00;74.50;;;;;;5050660;28;19924;-71
2024/01/16 01:35:04;;;;;;;;;;;3.00;74.30;;;;;;5050219;28;19970;-73
2024/01/16 01:37:30;;;;;;;;;;;3.00;74.30;;;;;;5050663;28;20332;-72
2024/01/16 01:39:55;;;;;;;;;;;3.00;74.40;;;;;;5051427;28;20004;-73
2024/01/16 01:42:21;;;;;;;;;;;3.10;74.50;;;;;;5051261;28;20023;-73
2024/01/16 01:44:48;;;;;;;;;;;3.00;74.20;;;;;;5050359;28;19982;-72
2024/01/16 01:47:14;;;;;;;;;;;3.10;73.70;;;;;;5051694;28;19916;-73
2024/01/16 01:49:41;;;;;;;;;;;3.10;73.70;;;;;;5054730;28;20353;-72
2024/01/16 01:52:07;;;;;;;;;;;3.10;74.10;;;;;;5053465;28;19943;-73
2024/01/16 01:54:35;;;;;;;;;;;3.10;74.00;;;;;;5054550;28;19928;-72
2024/01/16 01:57:02;;;;;;;;;;;3.10;74.00;;;;;;5054324;28;19927;-73
2024/01/16 01:59:29;;;;;;;;;;;3.10;74.10;;;;;;5037048;28;19921;-72
2024/01/16 02:01:55;;;;;;;;;;;3.10;74.10;;;;;;5053889;28;20031;-72
2024/01/16 02:04:22;;;;;;;;;;;3.00;74.10;;;;;;5037065;28;20286;-72
2024/01/16 02:06:48;;;;;;;;;;;3.00;74.20;;;;;;5054158;28;19920;-74
2024/01/16 02:09:14;;;;;;;;;;;3.00;73.70;;;;;;5053696;28;19928;-72
2024/01/16 02:11:41;;;;;;;;;;;3.00;74.20;;;;;;5054670;28;19921;-71
2024/01/16 02:14:07;;;;;;;;;;;3.00;74.10;;;;;;5054236;28;19935;-74
2024/01/16 02:16:52;;;;;;;;;;;3.00;73.60;;;;;;5037076;28;19924;-72
2024/01/16 02:19:18;;;;;;;;;;;3.00;74.20;;;;;;5055147;28;19921;-74
2024/01/16 02:21:48;;;;;;;;;;;3.00;74.50;;;;;;5053252;28;20293;-74
2024/01/16 02:24:15;;;;;;;;;;;3.00;74.40;;;;;;5054040;28;19921;-74
2024/01/16 02:26:41;;;;;;;;;;;3.00;74.50;;;;;;5036923;28;19925;-74
2024/01/16 02:29:07;;;;;;;;;;;3.00;74.60;;;;;;5053907;28;19920;-72
2024/01/16 02:31:34;;;;;;;;;;;3.00;74.70;;;;;;5054669;28;19920;-72
2024/01/16 02:34:00;;;;;;;;;;;3.00;74.60;;;;;;5053498;28;19920;-72
2024/01/16 02:36:29;;;;;;;;;;;2.90;74.60;;;;;;5053376;28;20360;-73
2024/01/16 02:38:55;;;;;;;;;;;2.90;74.60;;;;;;5053578;28;19921;-72
2024/01/16 02:41:21;;;;;;;;;;;2.90;74.70;;;;;;5035615;28;19924;-73
2024/01/16 02:43:47;;;;;;;;;;;2.90;74.90;;;;;;5054165;28;20435;-74
2024/01/16 02:46:14;;;;;;;;;;;2.90;74.70;;;;;;5052913;28;20357;-72
2024/01/16 02:48:42;;;;;;;;;;;3.00;74.70;;;;;;5052687;28;19921;-73
2024/01/16 02:51:08;;;;;;;;;;;3.00;74.80;;;;;;5052276;28;19924;-72
2024/01/16 02:53:34;;;;;;;;;;;2.90;74.30;;;;;;5035970;28;19927;-73
2024/01/16 02:56:00;;;;;;;;;;;2.90;74.20;;;;;;5053856;28;19916;-74
2024/01/16 02:58:45;;;;;;;;;;;2.90;74.80;;;;;;5034640;28;19921;-73
2024/01/16 03:01:11;;;;;;;;;;;3.00;74.60;;;;;;5046063;28;19921;-72
2024/01/16 03:03:37;;;;;;;;;;;3.00;74.60;;;;;;5052869;28;19942;-71
2024/01/16 03:06:03;;;;;;;;;;;3.00;75.80;;;;;;5046115;28;19917;-72
2024/01/16 03:08:29;;;;;;;;;;;3.00;74.70;;;;;;5054366;28;19928;-73
2024/01/16 03:10:55;;;;;;;;;;;3.00;74.80;;;;;;5035377;28;19921;-74
2024/01/16 03:13:20;;;;;;;;;;;3.00;74.70;;;;;;5054262;28;19921;-72
2024/01/16 03:15:46;;;;;;;;;;;3.00;74.50;;;;;;5035372;28;19923;-72
2024/01/16 03:18:12;;;;;;;;;;;3.00;74.40;;;;;;5053585;28;20007;-72
2024/01/16 03:20:38;;;;;;;;;;;3.00;74.40;;;;;;5051582;28;19921;-72
2024/01/16 03:23:04;;;;;;;;;;;3.00;74.30;;;;;;5051413;28;20059;-71
2024/01/16 03:25:31;;;;;;;;;;;3.00;74.40;;;;;;5051898;28;19916;-72
2024/01/16 03:27:57;;;;;;;;;;;3.00;74.50;;;;;;5053151;28;20016;-73
2024/01/16 03:30:23;;;;;;;;;;;3.10;74.60;;;;;;5053287;28;19928;-73
2024/01/16 03:32:49;;;;;;;;;;;3.00;74.50;;;;;;5052581;28;19920;-72
2024/01/16 03:35:15;;;;;;;;;;;3.00;74.40;;;;;;5051927;28;19916;-72
2024/01/16 03:37:41;;;;;;;;;;;3.00;74.40;;;;;;5053702;28;19916;-74
2024/01/16 03:40:08;;;;;;;;;;;3.10;74.40;;;;;;5052720;28;19916;-73
2024/01/16 03:42:34;;;;;;;;;;;3.10;74.20;;;;;;5052495;28;19916;-74
2024/01/16 03:44:59;;;;;;;;;;;3.10;74.50;;;;;;5052174;28;20403;-71
2024/01/16 03:47:25;;;;;;;;;;;3.10;74.50;;;;;;5053455;28;19917;-72
2024/01/16 03:49:52;;;;;;;;;;;3.00;74.40;;;;;;5054059;28;20373;-72
2024/01/16 03:52:18;;;;;;;;;;;3.10;74.40;;;;;;5034593;28;19921;-72
2024/01/16 03:54:44;;;;;;;;;;;3.10;74.40;;;;;;5053996;28;19932;-71
2024/01/16 03:57:10;;;;;;;;;;;3.10;74.40;;;;;;5051562;28;20301;-73
2024/01/16 03:59:37;;;;;;;;;;;3.10;74.40;;;;;;5051938;28;19927;-72
2024/01/16 04:02:04;;;;;;;;;;;3.10;74.20;;;;;;5051162;28;19921;-74
2024/01/16 04:04:29;;;;;;;;;;;3.10;73.80;;;;;;5043109;28;20421;-73
2024/01/16 04:06:55;;;;;;;;;;;3.10;74.50;;;;;;5053230;28;19916;-73
2024/01/16 04:09:21;;;;;;;;;;;3.10;74.60;;;;;;5052177;28;20422;-72
2024/01/16 04:11:50;;;;;;;;;;;3.00;74.40;;;;;;5052126;28;19970;-72
2024/01/16 04:14:16;;;;;;;;;;;3.00;74.20;;;;;;5050968;28;19943;-72
2024/01/16 04:16:42;;;;;;;;;;;3.00;74.30;;;;;;5052536;28;19924;-73
2024/01/16 04:19:08;;;;;;;;;;;2.90;74.60;;;;;;5034844;28;20374;-73
2024/01/16 04:21:34;;;;;;;;;;;2.90;74.60;;;;;;5051720;28;20227;-73
2024/01/16 04:23:59;;;;;;;;;;;2.90;74.80;;;;;;5051092;28;20363;-71
2024/01/16 04:26:25;;;;;;;;;;;2.90;74.70;;;;;;5051967;28;19923;-73
2024/01/16 04:28:51;;;;;;;;;;;2.90;74.70;;;;;;5050568;28;19920;-73
2024/01/16 04:31:19;;;;;;;;;;;2.90;74.70;;;;;;5050365;28;19931;-72
2024/01/16 04:33:45;;;;;;;;;;;2.90;74.90;;;;;;5043006;28;21075;-73
2024/01/16 04:36:11;;;;;;;;;;;2.80;74.70;;;;;;5051228;28;19917;-73
2024/01/16 04:38:36;;;;;;;;;;;2.80;74.70;;;;;;5051945;28;19921;-72
2024/01/16 04:41:03;;;;;;;;;;;2.80;74.70;;;;;;5051475;28;19920;-73
2024/01/16 04:43:29;;;;;;;;;;;2.80;74.70;;;;;;5050239;28;19920;-74
2024/01/16 04:45:55;;;;;;;;;;;2.70;75.00;;;;;;5050252;28;19917;-74
2024/01/16 04:48:21;;;;;;;;;;;2.60;75.00;;;;;;5050324;28;19927;-71
2024/01/16 04:50:47;;;;;;;;;;;2.60;75.00;;;;;;5049790;28;19928;-72
2024/01/16 04:53:13;;;;;;;;;;;2.60;75.10;;;;;;5049958;28;19921;-73
2024/01/16 04:55:39;;;;;;;;;;;2.60;75.10;;;;;;5051514;28;19938;-73
2024/01/16 04:58:05;;;;;;;;;;;2.50;75.10;;;;;;5051563;28;19921;-73
2024/01/16 05:00:32;;;;;;;;;;;2.50;75.30;;;;;;5051388;28;19932;-71
2024/01/16 05:02:58;;;;;;;;;;;2.40;75.30;;;;;;5042876;28;19925;-74
2024/01/16 05:05:23;;;;;;;;;;;2.30;75.70;;;;;;5049916;28;19920;-72
2024/01/16 05:07:49;;;;;;;;;;;2.30;75.90;;;;;;5051610;28;20055;-72
2024/01/16 05:10:15;;;;;;;;;;;2.20;76.30;;;;;;5050806;28;19917;-72
2024/01/16 05:12:41;;;;;;;;;;;2.20;76.60;;;;;;5067153;28;19920;-72
2024/01/16 05:15:08;;;;;;;;;;;2.10;76.70;;;;;;5043711;28;19917;-73
2024/01/16 05:17:34;;;;;;;;;;;2.00;76.50;;;;;;5049440;28;20012;-72
2024/01/16 05:20:04;;;;;;;;;;;2.00;76.60;;;;;;5048911;28;19916;-73
2024/01/16 05:22:29;;;;;;;;;;;2.00;76.50;;;;;;5048825;28;20285;-74
2024/01/16 05:24:55;;;;;;;;;;;2.00;76.60;;;;;;5051063;28;19921;-73
2024/01/16 05:27:21;;;;;;;;;;;1.90;76.70;;;;;;5051024;28;19917;-73
2024/01/16 05:29:47;;;;;;;;;;;2.00;76.70;;;;;;5051329;28;20385;-72
2024/01/16 05:32:17;;;;;;;;;;;1.90;76.60;;;;;;5049301;28;20415;-73
2024/01/16 05:34:42;;;;;;;;;;;1.80;76.40;;;;;;5049936;28;19947;-74
2024/01/16 05:37:08;;;;;;;;;;;1.80;76.60;;;;;;5051145;28;19917;-74
2024/01/16 05:39:34;;;;;;;;;;;1.80;76.70;;;;;;5051341;28;19928;-74
2024/01/16 05:42:00;;;;;;;;;;;1.80;76.50;;;;;;5050379;28;19929;-72
2024/01/16 05:44:26;;;;;;;;;;;1.80;76.60;;;;;;5051004;28;19921;-74
2024/01/16 05:46:52;;;;;;;;;;;1.80;76.50;;;;;;5049549;28;19927;-72
2024/01/16 05:49:18;;;;;;;;;;;1.80;76.50;;;;;;5050967;28;19928;-74
2024/01/16 05:51:44;;;;;;;;;;;1.80;76.50;;;;;;5050760;28;19921;-72
2024/01/16 05:54:09;;;;;;;;;;;1.80;76.50;;;;;;5050831;28;19928;-74
2024/01/16 05:56:35;;;;;;;;;;;1.70;77.40;;;;;;5033332;28;19917;-72
2024/01/16 05:59:01;;;;;;;;;;;1.70;76.80;;;;;;5032404;28;19924;-72
2024/01/16 06:01:27;;;;;;;;;;;1.70;76.80;;;;;;5050503;28;19970;-72
2024/01/16 06:03:53;;;;;;;;;;;1.60;76.70;;;;;;5049538;28;19927;-74
2024/01/16 06:06:19;;;;;;;;;;;1.60;76.80;;;;;;5050521;28;20457;-72
2024/01/16 06:08:45;;;;;;;;;;;1.40;76.90;;;;;;5049772;28;20285;-73
2024/01/16 06:11:12;;;;;;;;;;;1.40;77.30;;;;;;5049058;28;19966;-72
2024/01/16 06:13:38;;;;;;;;;;;1.30;77.40;;;;;;5050006;28;19920;-72
2024/01/16 06:16:08;;;;;;;;;;;1.20;77.40;;;;;;5050962;28;19917;-74
2024/01/16 06:18:35;;;;;;;;;;;1.20;77.50;;;;;;5032764;28;19967;-74
2024/01/16 06:21:01;;;;;;;;;;;1.10;77.60;;;;;;5049040;28;19927;-74
2024/01/16 06:23:27;;;;;;;;;;;1.00;77.50;;;;;;5048904;28;19921;-72
2024/01/16 06:25:53;;;;;;;;;;;1.00;77.80;;;;;;5049572;28;20340;-74
2024/01/16 06:28:19;;;;;;;;;;;1.00;77.90;;;;;;5048998;28;19947;-73
2024/01/16 06:30:45;;;;;;;;;;;1.00;78.00;;;;;;5043028;28;19966;-72
2024/01/16 06:33:11;;;;;;;;;;;0.90;78.00;;;;;;5050383;28;20007;-72
2024/01/16 06:35:37;;;;;;;;;;;0.90;77.90;;;;;;5052508;28;19925;-72
2024/01/16 06:38:03;;;;;;;;;;;0.90;77.80;;;;;;5053209;28;19925;-72
2024/01/16 06:40:29;;;;;;;;;;;0.80;77.80;;;;;;5053846;28;19928;-74
2024/01/16 06:42:54;;;;;;;;;;;0.80;77.80;;;;;;5054584;28;20007;-74
2024/01/16 06:45:20;;;;;;;;;;;0.80;77.80;;;;;;5052618;28;19921;-74
2024/01/16 06:47:46;;;;;;;;;;;0.80;77.80;;;;;;5053805;28;20372;-74
2024/01/16 06:50:12;;;;;;;;;;;0.80;77.70;;;;;;5052054;28;19924;-74
2024/01/16 06:52:38;;;;;;;;;;;0.70;78.00;;;;;;5053507;28;19917;-74
2024/01/16 06:55:04;;;;;;;;;;;0.70;78.20;;;;;;5053866;28;19923;-72
2024/01/16 06:57:30;;;;;;;;;;;0.60;77.50;;;;;;5052264;28;19917;-74
2024/01/16 06:59:56;;;;;;;;;;;0.60;77.90;;;;;;5053159;28;19923;-74
2024/01/16 07:02:22;;;;;;;;;;;0.60;78.00;;;;;;5052738;28;20429;-72
2024/01/16 07:04:48;;;;;;;;;;;0.60;77.90;;;;;;5052603;28;19927;-72
2024/01/16 07:07:14;;;;;;;;;;;0.60;77.80;;;;;;5035964;28;19916;-74
2024/01/16 07:09:39;;;;;;;;;;;0.60;77.80;;;;;;5052179;28;20008;-72
2024/01/16 07:12:05;;;;;;;;;;;0.60;77.90;;;;;;5051621;28;20015;-74
2024/01/16 07:14:33;;;;;;;;;;;0.60;78.10;;;;;;5053936;28;19924;-72
2024/01/16 07:16:59;;;;;;;;;;;0.60;77.80;;;;;;5051648;28;19927;-74
2024/01/16 07:19:24;;;;;;;;;;;0.60;78.00;;;;;;5051923;28;19921;-72
2024/01/16 07:21:50;;;;;;;;;;;0.60;77.90;;;;;;5051663;28;19965;-74
2024/01/16 07:24:16;;;;;;;;;;;0.60;77.80;;;;;;5053413;28;19920;-73
2024/01/16 07:26:42;;;;;;;;;;;0.60;77.80;;;;;;5053272;28;19920;-72
2024/01/16 07:29:09;;;;;;;;;;;0.60;77.80;;;;;;5043538;28;19921;-72
2024/01/16 07:31:34;;;;;;;;;;;0.60;77.90;;;;;;5051487;28;20377;-72
2024/01/16 07:34:00;;;;;;;;;;;0.60;78.40;;;;;;5052848;28;19927;-74
2024/01/16 07:36:26;;;;;;;;;;;0.60;78.30;;;;;;5051920;28;20453;-75
2024/01/16 07:38:52;;;;;;;;;;;0.60;78.00;;;;;;5052730;28;19925;-74
2024/01/16 07:41:18;;;;;;;;;;;0.70;78.10;;;;;;5050797;28;20343;-72
2024/01/16 07:43:44;;;;;;;;;;;0.70;77.90;;;;;;5051562;28;19928;-73
2024/01/16 07:46:10;;;;;;;;;;;0.80;77.60;;;;;;5051786;28;19995;-72
2024/01/16 07:48:37;;;;;;;;;;;0.80;77.30;;;;;;5051498;28;20435;-72
2024/01/16 07:51:03;;;;;;;;;;;0.90;77.40;;;;;;5050821;28;19987;-72
2024/01/16 07:53:29;;;;;;;;;;;0.90;77.40;;;;;;5051167;28;19982;-73
2024/01/16 07:55:55;;;;;;;;;;;1.00;77.20;;;;;;5052732;28;19916;-71
2024/01/16 07:58:21;;;;;;;;;;;1.00;77.10;;;;;;5050857;28;19921;-72
2024/01/16 08:00:47;;;;;;;;;;;1.10;76.90;;;;;;5051063;28;19920;-72
2024/01/16 08:03:14;;;;;;;;;;;1.10;76.90;;;;;;5034311;28;19943;-72
2024/01/16 08:05:40;;;;;;;;;;;1.20;77.00;;;;;;5052314;28;20305;-72
2024/01/16 08:08:26;;;;;;;;;;;1.20;76.80;;;;;;5050936;28;20393;-74
2024/01/16 08:10:52;;;;;;;;;;;1.30;76.60;;;;;;5050237;28;19925;-72
2024/01/16 08:13:19;;;;;;;;;;;1.30;76.50;;;;;;5050910;28;19974;-72
2024/01/16 08:15:44;;;;;;;;;;;1.40;77.40;;;;;;5052369;28;20007;-72
2024/01/16 08:18:10;;;;;;;;;;;1.40;77.70;;;;;;5051658;28;20019;-74
2024/01/16 08:20:36;;;;;;;;;;;1.50;77.80;;;;;;5050376;28;19924;-72
2024/01/16 08:23:02;;;;;;;;;;;1.60;77.70;;;;;;5050602;28;19990;-74
2024/01/16 08:25:28;;;;;;;;;;;1.60;78.20;;;;;;5050779;28;20400;-72
2024/01/16 08:27:54;;;;;;;;;;;1.70;78.60;;;;;;5051043;28;19987;-72
2024/01/16 08:30:20;;;;;;;;;;;1.80;78.70;;;;;;5049778;28;19955;-72
2024/01/16 08:32:46;;;;;;;;;;;1.90;79.00;;;;;;5034210;28;20051;-72
2024/01/16 08:35:12;;;;;;;;;;;2.00;78.80;;;;;;5051492;28;20007;-73
2024/01/16 08:37:38;;;;;;;;;;;2.00;79.20;;;;;;5051730;28;19925;-74
2024/01/16 08:40:04;;;;;;;;;;;2.10;79.30;;;;;;5051688;28;20015;-74
2024/01/16 08:42:30;;;;;;;;;;;2.20;79.00;;;;;;5051460;28;20290;-74
2024/01/16 08:44:56;;;;;;;;;;;2.20;79.80;;;;;;5050512;28;19924;-74
2024/01/16 08:47:22;;;;;;;;;;;2.30;79.80;;;;;;5050066;28;19927;-72
2024/01/16 08:49:48;;;;;;;;;;;2.30;79.80;;;;;;5044042;28;19967;-74
2024/01/16 08:52:15;;;;;;;;;;;2.40;79.80;;;;;;5049972;28;19924;-75
2024/01/16 08:54:41;;;;;;;;;;;2.60;80.50;;;;;;5051658;28;19925;-72
2024/01/16 08:57:07;;;;;;;;;;;2.80;79.30;;;;;;5049618;28;19922;-73
2024/01/16 08:59:33;;;;;;;;;;;2.90;79.10;;;;;;5033000;28;19983;-74
2024/01/16 09:01:59;;;;;;;;;;;3.00;78.80;;;;;;5049477;28;19960;-73
2024/01/16 09:04:25;;;;;;;;;;;3.30;78.60;;;;;;5050129;28;20358;-72
2024/01/16 09:06:52;;;;;;;;;;;4.20;76.80;;;;;;5049913;28;19970;-74
2024/01/16 09:09:18;;;;;;;;;;;5.50;73.40;;;;;;5050305;28;19924;-74
2024/01/16 09:11:44;;;;;;;;;;;7.30;66.20;;;;;;5050631;28;19990;-74
2024/01/16 09:14:09;;;;;;;;;;;7.40;64.90;;;;;;5051575;28;19974;-72
2024/01/16 09:16:35;;;;;;;;;;;7.00;66.60;;;;;;5050051;28;19950;-74
2024/01/16 09:19:01;;;;;;;;;;;6.90;67.20;;;;;;5051101;28;19943;-74
2024/01/16 09:21:28;;;;;;;;;;;8.00;65.30;;;;;;5050818;28;19927;-72
2024/01/16 09:23:54;;;;;;;;;;;9.00;60.40;;;;;;5049658;28;20020;-72
2024/01/16 09:26:20;;;;;;;;;;;8.60;58.80;;;;;;5049977;28;19999;-74
2024/01/16 09:28:46;;;;;;;;;;;8.20;61.70;;;;;;5033249;28;19975;-74
2024/01/16 09:31:12;;;;;;;;;;;8.10;63.60;;;;;;5049209;28;19925;-74
2024/01/16 09:33:38;;;;;;;;;;;8.20;62.10;;;;;;5051455;28;19928;-72
2024/01/16 09:36:04;;;;;;;;;;;8.00;63.50;;;;;;5049674;28;19990;-74
2024/01/16 09:38:33;;;;;;;;;;;7.90;62.60;;;;;;5051014;28;19924;-74
2024/01/16 09:40:59;;;;;;;;;;;7.70;62.10;;;;;;5048753;28;19974;-74
2024/01/16 09:43:27;;;;;;;;;;;7.50;63.00;;;;;;5032912;28;19920;-72
2024/01/16 09:45:55;;;;;;;;;;;7.70;61.10;;;;;;5049623;28;19921;-74
2024/01/16 09:48:21;;;;;;;;;;;8.00;60.40;;;;;;5049506;28;19921;-72
2024/01/16 09:50:47;;;;;;;;;;;8.00;60.80;;;;;;5050933;28;19921;-74
2024/01/16 09:53:13;;;;;;;;;;;8.60;59.90;;;;;;5049205;28;19928;-72
2024/01/16 09:55:39;;;;;;;;;;;9.60;56.80;;;;;;5050983;28;19917;-72
2024/01/16 09:58:06;;;;;;;;;;;9.90;55.10;;;;;;5049312;28;19925;-71
2024/01/16 10:00:32;;;;;;;;;;;9.70;53.90;;;;;;5049116;28;20361;-72
2024/01/16 10:03:00;;;;;;;;;;;10.00;52.90;;;;;;5049681;28;19967;-72
2024/01/16 10:05:26;;;;;;;;;;;10.50;52.80;;;;;;5041434;28;19923;-72
2024/01/16 10:07:52;;;;;;;;;;;9.90;52.70;;;;;;5050343;28;19920;-74
2024/01/16 10:10:19;;;;;;;;;;;9.70;54.50;;;;;;5052638;28;20289;-74
2024/01/16 10:12:46;;;;;;;;;;;9.70;55.70;;;;;;5053277;28;19924;-72
2024/01/16 10:15:14;;;;;;;;;;;10.20;54.70;;;;;;5054431;28;19917;-72
2024/01/16 10:17:42;;;;;;;;;;;10.20;54.10;;;;;;5052934;28;20290;-72
2024/01/16 10:20:13;;;;;;;;;;;10.60;53.20;;;;;;5052630;28;20289;-74
2024/01/16 10:22:58;;;;;;;;;;;10.70;52.40;;;;;;5053220;28;19967;-73
2024/01/16 10:25:24;;;;;;;;;;;11.10;52.20;;;;;;5054394;28;19920;-74
2024/01/16 10:28:03;;;;;;;;;;;11.00;52.90;;;;;;5053214;28;20250;-72
2024/01/16 10:30:29;;;;;;;;;;;11.80;51.30;;;;;;5052232;28;20015;-72
2024/01/16 10:32:57;;;;;;;;;;;13.00;45.10;;;;;;5054293;28;19921;-75
2024/01/16 10:35:23;;;;;;;;;;;13.00;46.50;;;;;;5052562;28;19988;-72
2024/01/16 10:37:50;;;;;;;;;;;13.40;42.90;;;;;;5053252;28;20015;-73
2024/01/16 10:40:35;;;;;;;;;;;14.10;40.80;;;;;;5052349;28;19916;-73
2024/01/16 10:43:03;;;;;;;;;;;13.80;42.20;;;;;;5052528;28;19921;-74
2024/01/16 10:45:30;;;;;;;;;;;14.10;40.80;;;;;;5053684;28;20276;-73
2024/01/16 10:48:15;;;;;;;;;;;14.20;41.90;;;;;;5052435;28;19964;-73
2024/01/16 10:50:41;;;;;;;;;;;15.70;38.20;;;;;;5053322;28;19927;-73
2024/01/16 10:53:08;;;;;;;;;;;15.00;37.50;;;;;;5052457;28;19921;-73
2024/01/16 10:56:07;;;;;;;;;;;14.10;40.30;;;;;;5052290;28;19916;-74
2024/01/16 10:58:33;;;;;;;;;;;13.60;41.00;;;;;;5053381;28;20011;-74
2024/01/16 11:03:49;;;;;;;;;;;12.50;43.30;;;;;;5052428;28;19928;-74
2024/01/16 11:06:16;;;;;;;;;;;12.50;43.10;;;;;;5035544;28;19917;-74
2024/01/16 11:08:45;;;;;;;;;;;12.40;43.70;;;;;;5035476;28;19924;-73
2024/01/16 11:11:13;;;;;;;;;;;12.20;43.60;;;;;;5051748;28;19920;-72
2024/01/16 11:13:41;;;;;;;;;;;12.50;43.30;;;;;;5035352;28;19967;-74
2024/01/16 11:16:08;;;;;;;;;;;13.10;41.50;;;;;;5035743;28;19916;-74
2024/01/16 11:21:19;;;;;;;;;;;13.80;38.20;;;;;;5046667;28;20185;-73
2024/01/16 11:23:45;;;;;;;;;;;13.30;39.20;;;;;;5034883;28;19925;-72
2024/01/16 11:29:27;;;;;;;;;;;12.80;41.10;;;;;;5052244;28;19963;-73
2024/01/16 11:31:57;;;;;;;;;;;13.20;39.00;;;;;;5052379;28;20027;-74
2024/01/16 11:34:41;;;;;;;;;;;13.70;39.00;;;;;;5051721;28;19979;-73
2024/01/16 11:37:12;;;;;;;;;;;14.40;37.50;;;;;;5051556;28;19920;-73
2024/01/16 11:39:38;;;;;;;;;;;14.80;35.90;;;;;;5051935;28;20019;-72
2024/01/16 11:42:04;;;;;;;;;;;14.70;36.40;;;;;;5050806;28;19920;-74
2024/01/16 11:47:33;;;;;;;;;;;12.70;40.60;;;;;;5046361;28;20414;-74
2024/01/16 11:50:27;;;;;;;;;;;12.30;41.90;;;;;;5051225;28;19921;-74
2024/01/16 11:52:53;;;;;;;;;;;12.10;40.40;;;;;;5052633;28;20358;-72
2024/01/16 11:55:56;;;;;;;;;;;12.40;41.60;;;;;;5052478;28;20012;-74
2024/01/16 11:59:00;;;;;;;;;;;13.30;39.00;;;;;;5045088;28;20258;-74
2024/01/16 12:01:27;;;;;;;;;;;13.50;38.20;;;;;;5042971;28;19920;-73
2024/01/16 12:04:11;;;;;;;;;;;12.90;39.40;;;;;;5051253;28;19932;-74
2024/01/16 12:06:37;;;;;;;;;;;13.70;39.50;;;;;;5044917;28;19916;-73
2024/01/16 12:09:23;;;;;;;;;;;15.00;35.10;;;;;;5051175;28;19931;-72
2024/01/16 12:12:07;;;;;;;;;;;15.50;33.70;;;;;;5050664;28;19931;-74
2024/01/16 12:14:33;;;;;;;;;;;14.90;34.30;;;;;;5045224;28;19935;-75
2024/01/16 12:17:20;;;;;;;;;;;14.20;36.40;;;;;;5034535;28;19925;-74
2024/01/16 12:19:46;;;;;;;;;;;14.00;36.90;;;;;;5046356;28;19927;-73
2024/01/16 12:22:30;;;;;;;;;;;14.10;36.50;;;;;;5050480;28;19920;-73
2024/01/16 12:24:58;;;;;;;;;;;13.60;38.10;;;;;;5050635;28;20330;-74
2024/01/16 12:27:24;;;;;;;;;;;13.00;38.90;;;;;;5052252;28;20350;-73
2024/01/16 12:30:07;;;;;;;;;;;12.70;39.60;;;;;;5052305;28;19921;-73
2024/01/16 12:32:33;;;;;;;;;;;12.40;39.20;;;;;;5049710;28;19979;-74
2024/01/16 12:34:58;;;;;;;;;;;12.90;38.80;;;;;;5050921;28;19920;-74
2024/01/16 12:37:24;;;;;;;;;;;12.90;39.30;;;;;;5051459;28;20461;-73
2024/01/16 12:39:52;;;;;;;;;;;13.40;38.00;;;;;;5050795;28;19916;-73
2024/01/16 12:42:18;;;;;;;;;;;13.30;38.20;;;;;;5049720;28;19924;-75
2024/01/16 12:44:46;;;;;;;;;;;13.00;38.30;;;;;;5033623;28;19920;-74
2024/01/16 12:47:15;;;;;;;;;;;12.90;38.30;;;;;;5050373;28;19921;-74
2024/01/16 12:49:45;;;;;;;;;;;12.50;40.60;;;;;;5050389;28;19963;-74
2024/01/16 12:52:30;;;;;;;;;;;12.40;41.50;;;;;;5049853;28;20328;-73
2024/01/16 12:55:15;;;;;;;;;;;12.70;41.20;;;;;;5043192;28;20358;-73
2024/01/16 12:57:41;;;;;;;;;;;12.60;40.90;;;;;;5050227;28;19916;-73
2024/01/16 13:00:26;;;;;;;;;;;12.60;41.50;;;;;;5049558;28;19943;-73
2024/01/16 13:02:52;;;;;;;;;;;12.20;41.90;;;;;;5051070;28;19950;-75
2024/01/16 13:05:18;;;;;;;;;;;11.90;42.90;;;;;;5050194;28;19916;-73
2024/01/16 13:07:45;;;;;;;;;;;12.30;41.80;;;;;;5051031;28;19924;-74
2024/01/16 13:10:15;;;;;;;;;;;12.50;41.60;;;;;;5049587;28;19940;-73
2024/01/16 13:12:42;;;;;;;;;;;12.60;40.80;;;;;;5050115;28;19917;-72
2024/01/16 13:15:08;;;;;;;;;;;12.80;40.70;;;;;;5033278;28;20361;-73
2024/01/16 13:17:34;;;;;;;;;;;12.40;41.20;;;;;;5051152;28;19917;-73
2024/01/16 13:20:03;;;;;;;;;;;12.80;40.50;;;;;;5049836;28;20423;-72
2024/01/16 13:22:29;;;;;;;;;;;13.60;39.30;;;;;;5049532;28;19921;-74
2024/01/16 13:24:56;;;;;;;;;;;13.90;38.80;;;;;;5033013;28;20008;-74
2024/01/16 13:27:22;;;;;;;;;;;13.60;38.60;;;;;;5050023;28;20312;-73
2024/01/16 13:29:48;;;;;;;;;;;13.10;39.70;;;;;;5050007;28;19924;-72
2024/01/16 13:32:14;;;;;;;;;;;13.10;39.80;;;;;;5050627;28;20015;-74
2024/01/16 13:34:46;;;;;;;;;;;13.30;39.30;;;;;;5050085;28;20026;-73
2024/01/16 13:40:22;;;;;;;;;;;13.60;38.10;;;;;;5044080;28;19927;-74
2024/01/16 13:42:48;;;;;;;;;;;13.60;38.20;;;;;;5051573;28;19920;-73
2024/01/16 13:45:14;;;;;;;;;;;13.90;37.40;;;;;;5054646;28;19916;-74
2024/01/16 13:47:40;;;;;;;;;;;13.80;37.50;;;;;;5055521;28;19923;-73
2024/01/16 13:50:07;;;;;;;;;;;14.60;37.00;;;;;;5041906;28;20002;-74
2024/01/16 13:52:35;;;;;;;;;;;15.40;35.20;;;;;;5053744;28;19920;-73
2024/01/16 13:55:04;;;;;;;;;;;15.10;34.20;;;;;;5053353;28;19924;-74
2024/01/16 13:57:31;;;;;;;;;;;14.70;34.80;;;;;;5054840;28;19920;-73
2024/01/16 13:59:58;;;;;;;;;;;14.60;35.50;;;;;;5053040;28;19916;-74
2024/01/16 14:02:24;;;;;;;;;;;14.40;35.90;;;;;;5036097;28;20415;-74
2024/01/16 14:04:50;;;;;;;;;;;14.80;36.00;;;;;;5053859;28;19928;-74
2024/01/16 14:07:16;;;;;;;;;;;15.20;34.60;;;;;;5053085;28;19916;-74
2024/01/16 14:09:42;;;;;;;;;;;15.40;33.80;;;;;;5053690;28;19990;-74
2024/01/16 14:12:08;;;;;;;;;;;14.60;35.40;;;;;;5054312;28;19927;-74
2024/01/16 14:14:34;;;;;;;;;;;13.60;36.50;;;;;;5053065;28;20294;-75
2024/01/16 14:17:02;;;;;;;;;;;13.00;38.00;;;;;;5054724;28;19924;-74
2024/01/16 14:19:30;;;;;;;;;;;13.50;38.10;;;;;;5052857;28;20371;-74
2024/01/16 14:21:56;;;;;;;;;;;13.60;37.40;;;;;;5036204;28;19982;-73
2024/01/16 14:24:22;;;;;;;;;;;13.00;37.90;;;;;;5052766;28;19960;-74
2024/01/16 14:26:48;;;;;;;;;;;12.50;39.70;;;;;;5054299;28;20321;-73
2024/01/16 14:29:15;;;;;;;;;;;12.00;40.20;;;;;;5052890;28;20358;-74
2024/01/16 14:34:26;;;;;;;;;;;11.00;43.00;;;;;;5053122;28;20395;-73
2024/01/16 14:36:53;;;;;;;;;;;10.60;43.60;;;;;;5053081;28;19958;-73
2024/01/16 14:39:24;;;;;;;;;;;10.10;45.10;;;;;;5054153;28;19921;-73
2024/01/16 14:41:51;;;;;;;;;;;9.60;46.40;;;;;;5053995;28;19920;-74
2024/01/16 14:44:17;;;;;;;;;;;9.20;47.40;;;;;;5052378;28;19921;-74